createdAt,value
2024-05-09T00:01:29.710Z,17.18
2024-05-09T00:03:59.972Z,17.17
2024-05-09T00:06:30.186Z,17.14
2024-05-09T00:09:03.118Z,17.10
2024-05-09T00:11:33.412Z,17.07
2024-05-09T00:14:03.778Z,17.04
2024-05-09T00:16:34.002Z,16.98
2024-05-09T00:19:04.434Z,16.94
2024-05-09T00:21:34.702Z,16.89
2024-05-09T00:24:08.109Z,16.86
2024-05-09T00:26:38.437Z,16.87
2024-05-09T00:29:08.837Z,16.88
2024-05-09T00:31:39.149Z,16.84
2024-05-09T00:34:09.792Z,16.80
2024-05-09T00:36:40.200Z,16.72
2024-05-09T00:39:13.111Z,16.69
2024-05-09T00:41:43.388Z,16.67
2024-05-09T00:44:13.713Z,16.69
2024-05-09T00:46:44.520Z,16.70
2024-05-09T00:49:15.781Z,16.65
2024-05-09T00:51:46.097Z,16.64
2024-05-09T00:54:20.073Z,16.67
2024-05-09T00:56:52.625Z,16.73
2024-05-09T00:59:23.312Z,16.77
2024-05-09T01:01:53.849Z,16.81
2024-05-09T01:04:24.374Z,16.85
2024-05-09T01:06:54.675Z,16.90
2024-05-09T01:09:27.591Z,16.95
2024-05-09T01:11:57.927Z,17.02
2024-05-09T01:14:28.348Z,17.06
2024-05-09T01:16:58.872Z,17.15
2024-05-09T01:19:31.793Z,17.19
2024-05-09T01:22:02.354Z,17.22
2024-05-09T01:24:35.206Z,17.26
2024-05-09T01:27:05.530Z,17.25
2024-05-09T01:29:35.876Z,17.26
2024-05-09T01:32:06.414Z,17.24
2024-05-09T01:34:36.828Z,17.24
2024-05-09T01:37:07.597Z,17.22
2024-05-09T01:39:40.556Z,17.15
2024-05-09T01:42:10.782Z,17.13
2024-05-09T01:44:41.179Z,17.06
2024-05-09T01:47:11.614Z,17.04
2024-05-09T01:49:43.559Z,17.04
2024-05-09T01:52:13.988Z,17.02
2024-05-09T01:54:46.879Z,17.01
2024-05-09T01:57:17.232Z,16.95
2024-05-09T01:59:47.573Z,16.96
2024-05-09T02:02:18.000Z,16.98
2024-05-09T02:04:50.237Z,16.99
2024-05-09T02:07:20.791Z,16.94
2024-05-09T02:09:54.733Z,16.92
2024-05-09T02:12:25.172Z,16.91
2024-05-09T02:14:55.506Z,16.93
2024-05-09T02:17:25.898Z,16.91
2024-05-09T02:19:56.258Z,16.86
2024-05-09T02:22:26.472Z,16.82
2024-05-09T02:24:59.369Z,16.80
2024-05-09T02:27:29.581Z,16.77
2024-05-09T02:29:59.719Z,16.74
2024-05-09T02:32:30.116Z,16.73
2024-05-09T02:35:00.533Z,16.70
2024-05-09T02:37:28.069Z,16.54
2024-05-09T02:40:00.957Z,16.55
2024-05-09T02:42:28.485Z,16.56
2024-05-09T02:44:58.625Z,16.59
2024-05-09T02:47:26.237Z,16.55
2024-05-09T02:49:56.676Z,16.50
2024-05-09T02:52:24.236Z,16.47
2024-05-09T02:54:54.363Z,16.47
2024-05-09T02:57:24.538Z,16.45
2024-05-09T02:59:54.893Z,16.41
2024-05-09T03:02:22.597Z,16.34
2024-05-09T03:04:52.854Z,16.30
2024-05-09T03:07:20.490Z,16.22
2024-05-09T03:09:50.706Z,16.12
2024-05-09T03:12:18.260Z,16.05
2024-05-09T03:14:53.109Z,16.00
2024-05-09T03:17:20.784Z,15.97
2024-05-09T03:19:51.072Z,15.93
2024-05-09T03:22:18.674Z,15.88
2024-05-09T03:24:48.905Z,15.85
2024-05-09T03:27:16.478Z,15.78
2024-05-09T03:29:46.699Z,15.74
2024-05-09T03:32:17.072Z,15.68
2024-05-09T03:34:47.501Z,15.66
2024-05-09T03:37:17.810Z,15.62
2024-05-09T03:39:48.024Z,15.60
2024-05-09T03:42:18.249Z,15.55
2024-05-09T03:44:48.401Z,15.54
2024-05-09T03:47:18.745Z,15.55
2024-05-09T03:49:49.090Z,15.57
2024-05-09T03:52:19.367Z,15.60
2024-05-09T03:54:47.140Z,15.65
2024-05-09T03:57:17.400Z,15.69
2024-05-09T03:59:44.869Z,15.68
2024-05-09T04:02:15.222Z,15.68
2024-05-09T04:04:45.530Z,15.63
2024-05-09T04:07:16.818Z,15.62
2024-05-09T04:09:44.350Z,15.60
2024-05-09T04:12:14.643Z,15.57
2024-05-09T04:14:43.077Z,15.54
2024-05-09T04:17:13.299Z,15.48
2024-05-09T04:19:40.915Z,15.46
2024-05-09T04:22:13.986Z,15.45
2024-05-09T04:24:41.535Z,15.41
2024-05-09T04:27:11.766Z,15.41
2024-05-09T04:29:40.810Z,15.40
2024-05-09T04:32:11.391Z,15.38
2024-05-09T04:34:38.940Z,15.37
2024-05-09T04:37:09.191Z,15.41
2024-05-09T04:39:39.359Z,15.47
2024-05-09T04:42:09.602Z,15.55
2024-05-09T04:44:39.074Z,15.66
2024-05-09T04:47:09.285Z,15.77
2024-05-09T04:49:36.978Z,15.90
2024-05-09T04:52:07.536Z,16.04
2024-05-09T04:54:36.627Z,16.17
2024-05-09T04:57:09.884Z,16.28
2024-05-09T04:59:37.553Z,16.42
2024-05-09T05:02:08.139Z,16.59
2024-05-09T05:04:35.686Z,16.73
2024-05-09T05:07:05.960Z,16.85
2024-05-09T05:09:33.489Z,16.98
2024-05-09T05:12:23.867Z,17.10
2024-05-09T05:14:54.132Z,17.24
2024-05-09T05:17:24.442Z,17.37
2024-05-09T05:19:52.298Z,17.53
2024-05-09T05:22:22.634Z,17.66
2024-05-09T05:24:50.100Z,17.79
2024-05-09T05:27:20.285Z,17.89
2024-05-09T05:29:47.886Z,17.96
2024-05-09T05:32:21.015Z,18.02
2024-05-09T05:34:48.724Z,18.08
2024-05-09T05:37:18.954Z,18.07
2024-05-09T05:39:46.492Z,18.06
2024-05-09T05:42:17.232Z,18.08
2024-05-09T05:44:44.785Z,18.07
2024-05-09T05:47:15.032Z,18.00
2024-05-09T05:49:45.414Z,18.13
2024-05-09T05:52:15.752Z,18.23
2024-05-09T05:54:43.298Z,18.30
2024-05-09T05:57:13.882Z,18.38
2024-05-09T05:59:41.516Z,18.42
2024-05-09T06:02:13.970Z,18.54
2024-05-09T06:04:42.677Z,18.62
2024-05-09T06:07:15.648Z,18.71
2024-05-09T06:09:44.769Z,18.77
2024-05-09T06:12:16.428Z,18.85
2024-05-09T06:14:44.468Z,18.86
2024-05-09T06:17:14.722Z,18.80
2024-05-09T06:19:42.336Z,18.92
2024-05-09T06:22:15.199Z,19.01
2024-05-09T06:24:43.106Z,19.13
2024-05-09T06:27:13.248Z,19.25
2024-05-09T06:29:40.879Z,19.37
2024-05-09T06:32:11.277Z,19.38
2024-05-09T06:34:38.951Z,19.52
2024-05-09T06:37:09.339Z,19.62
2024-05-09T06:39:39.553Z,19.74
2024-05-09T06:42:09.809Z,19.74
2024-05-09T06:44:37.384Z,19.75
2024-05-09T06:47:08.020Z,19.85
2024-05-09T06:49:35.858Z,20.03
2024-05-09T06:52:06.411Z,20.17
2024-05-09T06:54:33.956Z,20.18
2024-05-09T06:57:07.325Z,20.25
2024-05-09T06:59:34.892Z,20.33
2024-05-09T07:02:05.976Z,20.49
2024-05-09T07:04:36.314Z,20.65
2024-05-09T07:07:04.548Z,20.60
2024-05-09T07:09:34.819Z,20.46
2024-05-09T07:12:07.020Z,20.56
2024-05-09T07:14:38.386Z,21.03
2024-05-09T07:17:07.435Z,21.70
2024-05-09T07:19:37.896Z,22.11
2024-05-09T07:22:05.555Z,22.58
2024-05-09T07:24:35.894Z,22.77
2024-05-09T07:27:06.321Z,22.93
2024-05-09T07:29:38.453Z,22.91
2024-05-09T07:32:07.338Z,22.79
2024-05-09T07:34:37.744Z,22.62
2024-05-09T07:37:06.365Z,22.41
2024-05-09T07:39:36.586Z,22.27
2024-05-09T07:42:06.877Z,22.23
2024-05-09T07:44:37.228Z,22.22
2024-05-09T07:48:14.392Z,22.20
2024-05-09T07:55:02.945Z,24.01
2024-05-09T07:57:33.372Z,24.49
2024-05-09T08:00:04.552Z,24.99
2024-05-09T08:02:32.351Z,24.98
2024-05-09T08:05:02.922Z,24.75
2024-05-09T08:07:31.674Z,24.17
2024-05-09T08:10:01.979Z,24.02
2024-05-09T08:12:29.615Z,23.89
2024-05-09T08:15:03.588Z,23.99
2024-05-09T08:17:31.240Z,24.51
2024-05-09T08:20:05.409Z,24.87
2024-05-09T08:22:33.441Z,25.22
2024-05-09T08:25:03.646Z,25.05
2024-05-09T08:27:31.316Z,24.79
2024-05-09T08:30:04.902Z,24.51
2024-05-09T08:32:35.107Z,24.40
2024-05-09T08:35:05.495Z,24.34
2024-05-09T08:37:37.912Z,24.19
2024-05-09T08:40:23.469Z,24.27
2024-05-09T08:42:57.783Z,24.76
2024-05-09T08:45:30.971Z,25.45
2024-05-09T08:48:01.579Z,25.92
2024-05-09T08:50:38.136Z,25.95
2024-05-09T08:53:07.583Z,25.63
2024-05-09T08:55:41.964Z,25.15
2024-05-09T08:58:16.232Z,24.45
2024-05-09T09:00:50.319Z,24.43
2024-05-09T09:03:19.680Z,24.06
2024-05-09T09:05:57.131Z,24.20
2024-05-09T09:08:26.588Z,24.75
2024-05-09T09:10:59.410Z,25.44
2024-05-09T09:13:27.948Z,25.91
2024-05-09T09:16:03.162Z,25.71
2024-05-09T09:18:31.172Z,25.80
2024-05-09T09:21:02.518Z,25.40
2024-05-09T09:23:30.655Z,25.65
2024-05-09T09:26:02.443Z,25.69
2024-05-09T09:28:30.284Z,25.76
2024-05-09T09:31:07.303Z,25.86
2024-05-09T09:33:36.332Z,25.88
2024-05-09T09:36:08.994Z,25.63
2024-05-09T09:38:38.067Z,25.72
2024-05-09T09:41:10.957Z,25.69
2024-05-09T09:43:40.515Z,26.08
2024-05-09T09:46:15.201Z,26.43
2024-05-09T09:48:44.269Z,26.51
2024-05-09T09:51:14.879Z,26.47
2024-05-09T09:53:44.127Z,26.81
2024-05-09T09:56:14.902Z,26.66
2024-05-09T09:58:43.992Z,26.32
2024-05-09T10:01:17.048Z,25.69
2024-05-09T10:03:45.788Z,25.27
2024-05-09T10:06:17.233Z,25.21
2024-05-09T10:08:46.458Z,25.19
2024-05-09T10:11:16.794Z,25.76
2024-05-09T10:13:44.810Z,26.64
2024-05-09T10:16:24.635Z,27.38
2024-05-09T10:18:52.637Z,27.64
2024-05-09T10:21:24.088Z,27.97
2024-05-09T10:23:58.231Z,27.95
2024-05-09T10:26:35.907Z,27.81
2024-05-09T10:29:12.330Z,27.34
2024-05-09T10:31:48.479Z,27.25
2024-05-09T10:34:20.084Z,27.10
2024-05-09T10:36:55.730Z,27.08
2024-05-09T10:39:25.071Z,27.31
2024-05-09T10:41:55.307Z,28.05
2024-05-09T10:44:22.835Z,28.50
2024-05-09T10:46:56.512Z,28.58
2024-05-09T10:49:24.294Z,29.15
2024-05-09T10:51:55.725Z,29.05
2024-05-09T10:54:23.240Z,29.15
2024-05-09T10:56:59.580Z,28.95
2024-05-09T10:59:33.492Z,28.71
2024-05-09T11:02:07.990Z,28.40
2024-05-09T11:04:37.144Z,28.15
2024-05-09T11:07:11.624Z,28.11
2024-05-09T11:09:39.865Z,27.85
2024-05-09T11:12:10.934Z,27.90
2024-05-09T11:14:38.629Z,28.20
2024-05-09T11:17:11.607Z,28.63
2024-05-09T11:19:40.265Z,29.18
2024-05-09T11:22:11.048Z,29.81
2024-05-09T11:24:38.754Z,30.32
2024-05-09T11:27:09.327Z,30.28
2024-05-09T11:29:38.372Z,30.49
2024-05-09T11:32:13.890Z,30.30
2024-05-09T11:34:42.497Z,30.45
2024-05-09T11:37:13.997Z,30.61
2024-05-09T11:39:41.678Z,31.11
2024-05-09T11:42:11.929Z,31.63
2024-05-09T11:44:39.487Z,31.39
2024-05-09T11:47:12.495Z,30.95
2024-05-09T11:49:40.165Z,30.68
2024-05-09T11:52:10.346Z,30.72
2024-05-09T11:54:37.999Z,31.05
2024-05-09T11:57:09.657Z,31.63
2024-05-09T11:59:37.217Z,32.18
2024-05-09T12:02:07.798Z,32.40
2024-05-09T12:04:38.274Z,32.07
2024-05-09T12:07:11.323Z,32.16
2024-05-09T12:09:39.874Z,32.16
2024-05-09T12:12:10.217Z,31.61
2024-05-09T12:14:37.746Z,31.21
2024-05-09T12:17:08.456Z,31.80
2024-05-09T12:19:38.890Z,32.28
2024-05-09T12:22:09.338Z,32.02
2024-05-09T12:24:37.318Z,31.90
2024-05-09T12:27:08.135Z,31.94
2024-05-09T12:29:38.292Z,32.03
2024-05-09T12:32:09.628Z,32.10
2024-05-09T12:34:39.945Z,31.27
2024-05-09T12:37:10.559Z,30.75
2024-05-09T12:39:38.212Z,31.11
2024-05-09T12:42:09.775Z,31.61
2024-05-09T12:44:38.680Z,31.31
2024-05-09T12:47:08.939Z,30.91
2024-05-09T12:49:36.721Z,31.01
2024-05-09T12:52:10.357Z,30.68
2024-05-09T12:54:38.040Z,30.82
2024-05-09T12:57:11.464Z,30.77
2024-05-09T12:59:39.071Z,30.67
2024-05-09T13:02:09.570Z,30.83
2024-05-09T13:04:38.055Z,31.27
2024-05-09T13:07:11.387Z,31.51
2024-05-09T13:09:39.026Z,31.35
2024-05-09T13:12:09.614Z,31.15
2024-05-09T13:14:37.501Z,30.61
2024-05-09T13:17:08.128Z,30.51
2024-05-09T13:19:35.725Z,30.68
2024-05-09T13:22:06.047Z,31.20
2024-05-09T13:24:36.526Z,31.53
2024-05-09T13:27:07.047Z,31.53
2024-05-09T13:29:34.744Z,31.43
2024-05-09T13:32:04.930Z,31.61
2024-05-09T13:34:32.459Z,31.37
2024-05-09T13:37:02.711Z,31.56
2024-05-09T13:39:30.954Z,31.07
2024-05-09T13:42:04.255Z,30.53
2024-05-09T13:44:31.815Z,30.39
2024-05-09T13:47:02.200Z,30.77
2024-05-09T13:49:29.789Z,30.68
2024-05-09T13:52:00.031Z,30.41
2024-05-09T13:54:27.629Z,30.24
2024-05-09T13:57:00.974Z,30.56
2024-05-09T13:59:31.236Z,30.69
2024-05-09T14:02:01.797Z,30.75
2024-05-09T14:04:29.537Z,30.91
2024-05-09T14:06:59.884Z,31.07
2024-05-09T14:09:28.313Z,30.91
2024-05-09T14:11:58.619Z,30.94
2024-05-09T14:14:32.193Z,30.94
2024-05-09T14:17:02.659Z,30.90
2024-05-09T14:19:30.398Z,30.65
2024-05-09T14:22:00.619Z,30.54
2024-05-09T14:24:28.380Z,30.48
2024-05-09T14:26:58.607Z,30.56
2024-05-09T14:29:26.232Z,30.57
2024-05-09T14:31:59.166Z,30.72
2024-05-09T14:34:28.035Z,30.80
2024-05-09T14:36:59.036Z,30.99
2024-05-09T14:39:26.581Z,31.22
2024-05-09T14:41:56.760Z,31.33
2024-05-09T14:44:24.309Z,31.30
2024-05-09T14:46:54.516Z,31.20
2024-05-09T14:49:24.810Z,31.01
2024-05-09T14:51:55.141Z,30.84
2024-05-09T14:54:22.685Z,30.53
2024-05-09T14:56:54.917Z,30.28
2024-05-09T14:59:23.048Z,30.04
2024-05-09T15:01:53.288Z,29.76
2024-05-09T15:04:23.773Z,29.57
2024-05-09T15:06:54.859Z,29.43
2024-05-09T15:09:22.381Z,29.37
2024-05-09T15:11:52.562Z,29.42
2024-05-09T15:14:20.589Z,29.44
2024-05-09T15:16:51.987Z,29.24
2024-05-09T15:19:19.891Z,29.32
2024-05-09T15:21:53.075Z,29.35
2024-05-09T15:24:20.559Z,29.15
2024-05-09T15:26:51.430Z,29.09
2024-05-09T15:29:19.023Z,29.14
2024-05-09T15:31:49.235Z,29.16
2024-05-09T15:34:16.844Z,29.23
2024-05-09T15:36:51.139Z,29.16
2024-05-09T15:39:21.573Z,29.17
2024-05-09T15:41:53.089Z,29.16
2024-05-09T15:44:20.623Z,29.05
2024-05-09T15:46:51.231Z,29.03
2024-05-09T15:49:19.093Z,28.97
2024-05-09T15:51:49.421Z,28.90
2024-05-09T15:54:21.531Z,28.79
2024-05-09T15:56:52.467Z,28.69
2024-05-09T15:59:24.126Z,28.63
2024-05-09T16:01:51.723Z,28.48
2024-05-09T16:04:22.472Z,28.41
2024-05-09T16:06:50.193Z,28.34
2024-05-09T16:09:21.294Z,28.40
2024-05-09T16:11:51.574Z,28.26
2024-05-09T16:14:21.831Z,28.10
2024-05-09T16:16:51.331Z,27.89
2024-05-09T16:19:21.964Z,27.79
2024-05-09T16:21:49.629Z,27.66
2024-05-09T16:24:19.827Z,27.63
2024-05-09T16:26:47.410Z,27.68
2024-05-09T16:29:20.455Z,27.58
2024-05-09T16:31:48.126Z,27.65
2024-05-09T16:34:18.540Z,27.78
2024-05-09T16:36:46.302Z,27.72
2024-05-09T16:39:16.507Z,27.66
2024-05-09T16:41:44.086Z,27.76
2024-05-09T16:44:14.302Z,27.64
2024-05-09T16:46:44.619Z,27.37
2024-05-09T16:49:15.134Z,27.22
2024-05-09T16:51:42.715Z,27.05
2024-05-09T16:54:12.929Z,26.93
2024-05-09T16:56:40.537Z,26.85
2024-05-09T16:59:10.705Z,26.77
2024-05-09T17:01:38.307Z,26.70
2024-05-09T17:04:11.522Z,26.65
2024-05-09T17:06:39.361Z,26.54
2024-05-09T17:09:11.975Z,26.43
2024-05-09T17:11:45.723Z,26.37
2024-05-09T17:14:16.163Z,26.40
2024-05-09T17:16:43.772Z,26.33
2024-05-09T17:19:17.351Z,26.28
2024-05-09T17:21:44.892Z,26.27
2024-05-09T17:24:15.186Z,26.20
2024-05-09T17:26:42.818Z,26.19
2024-05-09T17:29:13.133Z,26.10
2024-05-09T17:31:40.719Z,26.08
2024-05-09T17:34:11.155Z,25.98
2024-05-09T17:36:41.601Z,26.01
2024-05-09T17:39:11.818Z,26.01
2024-05-09T17:41:42.037Z,26.04
2024-05-09T17:44:09.705Z,26.07
2024-05-09T17:46:40.068Z,26.07
2024-05-09T17:49:07.675Z,26.05
2024-05-09T17:51:38.451Z,25.99
2024-05-09T17:54:08.701Z,25.96
2024-05-09T17:56:38.957Z,25.97
2024-05-09T17:59:09.291Z,25.98
2024-05-09T18:01:41.158Z,25.91
2024-05-09T18:04:08.971Z,25.87
2024-05-09T18:06:39.302Z,25.74
2024-05-09T18:09:09.724Z,25.65
2024-05-09T18:11:40.723Z,25.61
2024-05-09T18:14:08.485Z,25.54
2024-05-09T18:16:38.732Z,25.49
2024-05-09T18:19:06.493Z,25.43
2024-05-09T18:21:36.782Z,25.35
2024-05-09T18:24:04.545Z,25.29
2024-05-09T18:26:37.441Z,25.17
2024-05-09T18:29:05.344Z,25.10
2024-05-09T18:31:35.601Z,25.05
2024-05-09T18:34:03.287Z,24.90
2024-05-09T18:36:34.378Z,24.75
2024-05-09T18:39:01.980Z,24.69
2024-05-09T18:41:32.345Z,24.65
2024-05-09T18:44:02.580Z,24.54
2024-05-09T18:46:32.918Z,24.43
2024-05-09T18:49:00.719Z,24.26
2024-05-09T18:51:31.183Z,24.13
2024-05-09T18:53:58.829Z,24.01
2024-05-09T18:56:29.216Z,23.92
2024-05-09T18:58:56.719Z,23.91
2024-05-09T19:01:29.774Z,23.87
2024-05-09T19:03:57.468Z,23.85
2024-05-09T19:06:27.881Z,23.86
2024-05-09T19:08:55.686Z,23.92
2024-05-09T19:11:26.371Z,23.90
2024-05-09T19:13:53.966Z,23.87
2024-05-09T19:16:24.422Z,23.90
2024-05-09T19:18:55.805Z,23.91
2024-05-09T19:21:26.172Z,23.89
2024-05-09T19:23:55.588Z,23.85
2024-05-09T19:26:26.413Z,23.81
2024-05-09T19:28:54.029Z,23.81
2024-05-09T19:31:24.319Z,23.73
2024-05-09T19:33:54.667Z,23.70
2024-05-09T19:36:25.758Z,23.68
2024-05-09T19:38:53.454Z,23.61
2024-05-09T19:41:23.648Z,23.62
2024-05-09T19:43:51.167Z,23.60
2024-05-09T19:46:21.529Z,23.64
2024-05-09T19:48:52.111Z,23.62
2024-05-09T19:51:22.392Z,23.58
2024-05-09T19:53:55.188Z,23.20
2024-05-09T19:56:23.022Z,23.07
2024-05-09T19:58:53.259Z,22.98
2024-05-09T20:01:20.987Z,22.92
2024-05-09T20:03:51.605Z,22.91
2024-05-09T20:06:24.524Z,22.82
2024-05-09T20:08:57.290Z,22.80
2024-05-09T20:11:26.159Z,22.79
2024-05-09T20:13:57.093Z,22.78
2024-05-09T20:16:24.918Z,22.50
2024-05-09T20:18:55.394Z,22.71
2024-05-09T20:21:25.697Z,22.83
2024-05-09T20:23:55.838Z,22.91
2024-05-09T20:26:23.487Z,22.94
2024-05-09T20:28:55.040Z,22.86
2024-05-09T20:31:22.713Z,22.82
2024-05-09T20:33:53.044Z,22.83
2024-05-09T20:36:20.640Z,22.80
2024-05-09T20:38:53.569Z,22.82
2024-05-09T20:41:21.060Z,22.77
2024-05-09T20:43:51.224Z,22.75
2024-05-09T20:46:18.944Z,22.70
2024-05-09T20:48:49.531Z,22.69
2024-05-09T20:51:17.100Z,22.68
2024-05-09T20:53:47.303Z,22.68
2024-05-09T20:56:17.551Z,22.67
2024-05-09T20:58:47.781Z,22.68
2024-05-09T21:01:15.383Z,22.21
2024-05-09T21:03:45.807Z,21.73
2024-05-09T21:06:13.420Z,21.61
2024-05-09T21:08:44.790Z,21.54
2024-05-09T21:11:12.324Z,21.48
2024-05-09T21:13:45.345Z,21.44
2024-05-09T21:16:13.005Z,21.40
2024-05-09T21:18:43.399Z,21.43
2024-05-09T21:21:11.002Z,21.45
2024-05-09T21:23:41.144Z,21.96
2024-05-09T21:26:08.664Z,21.55
2024-05-09T21:28:38.974Z,21.46
2024-05-09T21:31:09.483Z,21.42
2024-05-09T21:33:39.856Z,21.36
2024-05-09T21:36:09.686Z,21.35
2024-05-09T21:38:43.158Z,21.29
2024-05-09T21:41:10.768Z,21.22
2024-05-09T21:43:41.471Z,21.17
2024-05-09T21:46:11.748Z,21.15
2024-05-09T21:48:42.040Z,21.13
2024-05-09T21:51:13.775Z,21.07
2024-05-09T21:53:44.159Z,21.00
2024-05-09T21:56:11.834Z,20.91
2024-05-09T21:58:41.982Z,20.86
2024-05-09T22:01:12.313Z,20.81
2024-05-09T22:03:42.654Z,20.73
2024-05-09T22:06:10.372Z,20.65
2024-05-09T22:08:40.477Z,20.57
2024-05-09T22:11:08.271Z,20.44
2024-05-09T22:13:38.523Z,20.33
2024-05-09T22:16:07.224Z,20.21
2024-05-09T22:18:40.264Z,20.13
2024-05-09T22:21:07.787Z,20.04
2024-05-09T22:23:38.040Z,19.96
2024-05-09T22:26:05.783Z,19.85
2024-05-09T22:28:35.986Z,19.75
2024-05-09T22:31:03.779Z,19.73
2024-05-09T22:33:34.189Z,19.70
2024-05-09T22:36:07.271Z,19.68
2024-05-09T22:38:37.510Z,19.65
2024-05-09T22:41:06.851Z,19.61
2024-05-09T22:43:37.057Z,19.53
2024-05-09T22:46:04.862Z,19.48
2024-05-09T22:48:35.333Z,19.42
2024-05-09T22:51:06.071Z,19.36
2024-05-09T22:53:36.324Z,19.28
2024-05-09T22:56:03.912Z,19.22
2024-05-09T22:58:34.610Z,19.15
2024-05-09T23:01:02.467Z,19.10
2024-05-09T23:03:33.074Z,19.01
2024-05-09T23:06:00.692Z,18.98
2024-05-09T23:08:33.541Z,18.93
2024-05-09T23:11:01.283Z,18.87
2024-05-09T23:13:31.639Z,18.82
2024-05-09T23:15:59.216Z,18.77
2024-05-09T23:18:29.578Z,18.71
2024-05-09T23:20:57.188Z,18.66
2024-05-09T23:23:27.420Z,18.62
2024-05-09T23:25:57.613Z,18.57
2024-05-09T23:28:27.969Z,18.54
2024-05-09T23:30:55.682Z,18.84
2024-05-09T23:33:25.977Z,19.16
2024-05-09T23:35:53.759Z,19.20
2024-05-09T23:38:24.926Z,19.23
2024-05-09T23:40:52.479Z,19.12
2024-05-09T23:43:25.623Z,19.11
2024-05-09T23:45:53.301Z,19.07
2024-05-09T23:48:23.649Z,19.09
2024-05-09T23:50:51.244Z,19.07
2024-05-09T23:53:21.736Z,19.06
2024-05-09T23:55:49.246Z,18.99
2024-05-09T23:58:19.512Z,18.98
